Brak ostrzeżeń pogodowych   -   Brak ostrzeżeń pogodowych

Raporty Pogodowe z Lotnisk

 

EPKK - Krakow/Balice, Poland
Odległość od stacji: Zd 81km
Aktualizacja: 16/09/2019 14:30
Częściowe zachmurzenie
Częściowe zachmurzenie
 Wiatr z Zd
Wiatr: Zd 20 km/h
Temperatura: 19°C
Punkt Rosy: 12°C
Wilgotność Względna: 64%
Ciśnienie Względne: 1016 hPa
Chmury: Częściowe zachmurzenie
Widoczność: 10 km
Szczegóły chmur: Małe zachmurzenie 1006 m
Częściowe zachmurzenie 1829 m
2019/09/16 12:30 EPKK 161230Z 28011KT 250V310 9999 FEW033 SCT060 19/12 Q1016
EPRZ - Rzeszow/Jasionka, Poland
Odległość od stacji: Ws 81km
Aktualizacja: 16/09/2019 14:30
Małe zachmurzenie
Małe zachmurzenie
 Wiatr z Zd
Wiatr: Zd 22 km/h
Temperatura: 19°C
Punkt Rosy: 11°C
Wilgotność Względna: 60%
Ciśnienie Względne: 1015 hPa
Chmury: Małe zachmurzenie
Widoczność: 10 km
Szczegóły chmur: Małe zachmurzenie 1006 m
2019/09/16 12:30 EPRZ 161230Z 28012KT 9999 FEW033 19/11 Q1015
 
EPKT - Katowice/Pyrzowice, Poland
Odległość od stacji: ZdPnZd 141km
Aktualizacja: 16/09/2019 14:30
Przeważnie pochmurno
Przeważnie pochmurno
 Wiatr z Zd
Wiatr: Zd 17 km/h
Temperatura: 16°C
Punkt Rosy: 7°C
Wilgotność Względna: 55%
Ciśnienie Względne: 1016 hPa
Chmury: Przeważnie pochmurno
Widoczność: 10 km
Szczegóły chmur: Przeważnie pochmurno 1494 m
2019/09/16 12:30 EPKT 161230Z 28009KT 9999 BKN049 16/07 Q1016
EPWA - Warsaw/Okecie, Poland
Odległość od stacji: Pn 240km
Aktualizacja: 16/09/2019 14:30
Częściowe zachmurzenie
Częściowe zachmurzenie
 Wiatr z Zd
Wiatr: Zd 22 km/h
Temperatura: 17°C
Punkt Rosy: 6°C
Wilgotność Względna: 49%
Ciśnienie Względne: 1014 hPa
Chmury: Częściowe zachmurzenie
Widoczność: 10 km
Szczegóły chmur: Częściowe zachmurzenie 1402 m
2019/09/16 12:30 EPWA 161230Z 27012KT 210V300 9999 SCT046 17/06 Q1014 NOSIG
 
EPLL - Lodz/Lublinek, Poland
Odległość od stacji: PnPnZd 218km
Aktualizacja: 16/09/2019 14:30
Małe zachmurzenie
Małe zachmurzenie
 Wiatr z Zd
Wiatr: Zd 33 km/h
Temperatura: 15°C
Punkt Rosy: 6°C
Wilgotność Względna: 55%
Ciśnienie Względne: 1015 hPa
Chmury: Małe zachmurzenie
Widoczność: 10 km
Szczegóły chmur: Małe zachmurzenie 1067 m
2019/09/16 12:30 EPLL 161230Z 26018KT 9999 FEW035 15/06 Q1015
EPWR - Wroclaw/Strachowice, Poland
Odległość od stacji: ZdPnZd 311km
Aktualizacja: 16/09/2019 14:30
Małe zachmurzenie
Małe zachmurzenie
 Wiatr z ZdPnZd
Wiatr: ZdPnZd 22 km/h
Temperatura: 18°C
Punkt Rosy: 9°C
Wilgotność Względna: 56%
Ciśnienie Względne: 1017 hPa
Chmury: Małe zachmurzenie
Widoczność: 10 km
Szczegóły chmur: Małe zachmurzenie 1219 m
2019/09/16 12:30 EPWR 161230Z 30012KT 9999 FEW040 18/09 Q1017
 
EPGD - Gdansk/Rebiechowo, Poland
Odległość od stacji: PnZd 553km
Aktualizacja: 16/09/2019 14:30
Częściowe zachmurzenie
Częściowe zachmurzenie
 Wiatr z Zd
Wiatr: Zd 43 km/h, Poryw: 61 km/h
Temperatura: 15°C
Punkt Rosy: 6°C
Wilgotność Względna: 55%
Ciśnienie Względne: 1011 hPa
Chmury: Częściowe zachmurzenie
Widoczność: 10 km
Szczegóły chmur: Częściowe zachmurzenie 1158 m
2019/09/16 12:30 EPGD 161230Z 27023G33KT 9999 SCT038 15/06 Q1011
EPSC - Szczecin/Goleniow, Poland
Odległość od stacji: ZdPnZd 635km
Aktualizacja: 16/09/2019 14:30
Małe zachmurzenie
Małe zachmurzenie
 Wiatr z ZdPnZd
Wiatr: ZdPnZd 24 km/h
Temperatura: 15°C
Punkt Rosy: 6°C
Wilgotność Względna: 55%
Ciśnienie Względne: 1015 hPa
Chmury: Małe zachmurzenie
Widoczność: 10 km
Szczegóły chmur: Małe zachmurzenie 1341 m
2019/09/16 12:30 EPSC 161230Z 30013KT 9999 FEW044 15/06 Q1015